Time,TemperatureF,DewpointF,PressureIn,WindDirection,WindDirectionDegrees,WindSpeedMPH,WindSpeedGustMPH,Humidity,HourlyPrecipIn,Conditions,Clouds,dailyrainin,SoftwareType,DateUTC
2013-08-21 00:00:00,68.2,67.0,29.93,ENE,63,0.0,0.0,96,0.00,,,0.00,Wunderground v.1.15,2013-08-21 04:00:00,
2013-08-21 00:01:00,68.2,67.0,29.93,ENE,63,0.0,0.0,96,0.00,,,0.00,Wunderground v.1.15,2013-08-21 04:01:00,
2013-08-21 00:02:00,68.2,67.0,29.93,ENE,63,0.0,0.0,96,0.00,,,0.00,Wunderground v.1.15,2013-08-21 04:02:00,
2013-08-21 00:03:00,68.2,67.0,29.93,ENE,63,0.0,0.0,96,0.00,,,0.00,Wunderground v.1.15,2013-08-21 04:03:00,
2013-08-21 00:05:00,68.2,67.0,29.93,ENE,63,0.0,0.0,96,0.00,,,0.00,Wunderground v.1.15,2013-08-21 04:05:00,
2013-08-21 00:07:00,68.2,67.0,29.93,ENE,63,0.0,0.0,96,0.00,,,0.00,Wunderground v.1.15,2013-08-21 04:07:00,
2013-08-21 00:13:00,68.2,67.3,29.93,ENE,63,0.0,0.0,97,0.00,,,0.00,Wunderground v.1.15,2013-08-21 04:13:00,
2013-08-21 00:19:00,68.1,67.2,29.93,ENE,63,0.0,0.0,97,0.00,,,0.00,Wunderground v.1.15,2013-08-21 04:19:00,
2013-08-21 00:25:00,68.1,67.2,29.93,ENE,63,0.0,0.0,97,0.00,,,0.00,Wunderground v.1.15,2013-08-21 04:25:00,
2013-08-21 00:31:00,68.1,67.2,29.93,ENE,63,0.0,0.0,97,0.00,,,0.00,Wunderground v.1.15,2013-08-21 04:31:00,
2013-08-21 00:36:00,68.1,67.2,29.93,ENE,63,0.0,0.0,97,0.00,,,0.00,Wunderground v.1.15,2013-08-21 04:36:00,
2013-08-21 00:42:00,68.2,67.3,29.93,ENE,63,0.0,0.0,97,0.00,,,0.00,Wunderground v.1.15,2013-08-21 04:42:00,
2013-08-21 00:48:00,68.2,67.3,29.93,ENE,63,0.0,0.0,97,0.00,,,0.00,Wunderground v.1.15,2013-08-21 04:48:00,
2013-08-21 00:54:00,68.2,67.3,29.93,ENE,63,0.0,0.0,97,0.00,,,0.00,Wunderground v.1.15,2013-08-21 04:54:00,
2013-08-21 00:59:00,68.2,67.3,29.93,ENE,63,0.0,0.0,97,0.00,,,0.00,Wunderground v.1.15,2013-08-21 04:59:00,
2013-08-21 01:05:00,68.2,67.3,29.93,ENE,63,0.0,0.0,97,0.00,,,0.00,Wunderground v.1.15,2013-08-21 05:05:00,
2013-08-21 01:11:00,68.2,67.3,29.92,ENE,63,0.0,0.0,97,0.00,,,0.00,Wunderground v.1.15,2013-08-21 05:11:00,
2013-08-21 01:16:00,68.1,67.2,29.92,ENE,63,0.0,0.0,97,0.00,,,0.00,Wunderground v.1.15,2013-08-21 05:16:00,
2013-08-21 01:22:00,68.1,67.2,29.92,ENE,63,0.0,0.0,97,0.00,,,0.00,Wunderground v.1.15,2013-08-21 05:22:00,
2013-08-21 01:28:00,68.1,67.2,29.92,ENE,63,0.0,0.0,97,0.00,,,0.00,Wunderground v.1.15,2013-08-21 05:28:00,
2013-08-21 01:34:00,68.1,67.2,29.92,ENE,63,0.0,0.0,97,0.00,,,0.00,Wunderground v.1.15,2013-08-21 05:34:00,
2013-08-21 01:39:00,68.1,67.2,29.92,ENE,63,0.0,0.0,97,0.00,,,0.00,Wunderground v.1.15,2013-08-21 05:39:00,
2013-08-21 01:45:00,68.1,67.2,29.92,ENE,63,0.0,0.0,97,0.00,,,0.00,Wunderground v.1.15,2013-08-21 05:45:00,
2013-08-21 01:50:00,68.1,67.2,29.92,ENE,63,0.0,0.0,97,0.00,,,0.00,Wunderground v.1.15,2013-08-21 05:50:00,
2013-08-21 01:56:00,68.1,67.2,29.92,ENE,63,0.0,0.0,97,0.00,,,0.00,Wunderground v.1.15,2013-08-21 05:56:00,
2013-08-21 02:01:00,68.1,67.2,29.92,ENE,63,0.0,0.0,97,0.00,,,0.00,Wunderground v.1.15,2013-08-21 06:01:00,
2013-08-21 02:07:00,68.1,67.2,29.92,ENE,63,0.0,0.0,97,0.00,,,0.00,Wunderground v.1.15,2013-08-21 06:07:00,
2013-08-21 02:13:00,68.1,67.2,29.92,ENE,63,0.0,0.0,97,0.00,,,0.00,Wunderground v.1.15,2013-08-21 06:13:00,
2013-08-21 02:19:00,68.1,67.2,29.92,ENE,63,0.0,0.0,97,0.00,,,0.00,Wunderground v.1.15,2013-08-21 06:19:00,
2013-08-21 02:24:00,68.1,67.2,29.91,ENE,63,0.0,0.0,97,0.00,,,0.00,Wunderground v.1.15,2013-08-21 06:24:00,
2013-08-21 02:29:00,68.1,67.2,29.92,ENE,63,0.0,0.0,97,0.00,,,0.00,Wunderground v.1.15,2013-08-21 06:29:00,
2013-08-21 02:35:00,68.1,67.2,29.91,ENE,63,0.0,0.0,97,0.00,,,0.00,Wunderground v.1.15,2013-08-21 06:35:00,
2013-08-21 02:41:00,68.0,67.1,29.91,ENE,63,0.0,0.0,97,0.00,,,0.00,Wunderground v.1.15,2013-08-21 06:41:00,
2013-08-21 02:49:00,68.0,67.1,29.91,ENE,63,0.0,0.0,97,0.00,,,0.00,Wunderground v.1.15,2013-08-21 06:49:00,
2013-08-21 02:54:00,68.0,67.1,29.91,ENE,63,0.0,0.0,97,0.00,,,0.00,Wunderground v.1.15,2013-08-21 06:54:00,
2013-08-21 03:00:00,68.0,67.1,29.90,ENE,63,0.0,0.0,97,0.00,,,0.00,Wunderground v.1.15,2013-08-21 07:00:00,
2013-08-21 03:06:00,68.0,67.1,29.90,ENE,63,0.0,0.0,97,0.00,,,0.00,Wunderground v.1.15,2013-08-21 07:06:00,
2013-08-21 03:12:00,68.0,67.1,29.90,ENE,63,0.0,0.0,97,0.00,,,0.00,Wunderground v.1.15,2013-08-21 07:12:00,
2013-08-21 03:17:00,68.0,67.1,29.89,ENE,63,0.0,0.0,97,0.00,,,0.00,Wunderground v.1.15,2013-08-21 07:17:00,
2013-08-21 03:22:00,67.9,67.0,29.89,ENE,63,0.0,0.0,97,0.00,,,0.00,Wunderground v.1.15,2013-08-21 07:22:00,
2013-08-21 03:28:00,67.9,67.0,29.89,ENE,63,0.0,0.0,97,0.00,,,0.00,Wunderground v.1.15,2013-08-21 07:28:00,
2013-08-21 03:33:00,67.8,66.9,29.89,ENE,63,0.0,0.0,97,0.00,,,0.00,Wunderground v.1.15,2013-08-21 07:33:00,
2013-08-21 03:39:00,67.7,66.8,29.89,ENE,63,0.0,0.0,97,0.00,,,0.00,Wunderground v.1.15,2013-08-21 07:39:00,
2013-08-21 03:44:00,67.7,66.8,29.89,ENE,63,0.0,0.0,97,0.00,,,0.00,Wunderground v.1.15,2013-08-21 07:44:00,
2013-08-21 03:50:00,67.7,66.8,29.89,ENE,63,0.0,0.0,97,0.00,,,0.00,Wunderground v.1.15,2013-08-21 07:50:00,
2013-08-21 03:56:00,67.7,66.8,29.89,ENE,63,0.0,0.0,97,0.00,,,0.00,Wunderground v.1.15,2013-08-21 07:56:00,
2013-08-21 04:01:00,67.7,66.8,29.89,ENE,63,0.0,0.0,97,0.00,,,0.00,Wunderground v.1.15,2013-08-21 08:01:00,
2013-08-21 04:07:00,67.7,66.8,29.89,ENE,63,0.0,0.0,97,0.00,,,0.00,Wunderground v.1.15,2013-08-21 08:07:00,
2013-08-21 04:13:00,67.6,66.7,29.89,ENE,63,0.0,0.0,97,0.00,,,0.00,Wunderground v.1.15,2013-08-21 08:13:00,
2013-08-21 04:19:00,67.6,66.7,29.90,ENE,63,0.0,0.0,97,0.00,,,0.00,Wunderground v.1.15,2013-08-21 08:19:00,
2013-08-21 04:24:00,67.6,66.7,29.90,ENE,63,0.0,0.0,97,0.00,,,0.00,Wunderground v.1.15,2013-08-21 08:24:00,
2013-08-21 04:30:00,67.7,66.8,29.90,ENE,63,0.0,0.0,97,0.00,,,0.00,Wunderground v.1.15,2013-08-21 08:30:00,
2013-08-21 04:36:00,67.7,66.8,29.90,ENE,63,0.0,0.0,97,0.00,,,0.00,Wunderground v.1.15,2013-08-21 08:36:00,
2013-08-21 04:42:00,67.7,66.8,29.90,ENE,63,0.0,0.0,97,0.00,,,0.00,Wunderground v.1.15,2013-08-21 08:42:00,
2013-08-21 04:48:00,67.7,66.8,29.89,ENE,63,0.0,0.0,97,0.00,,,0.01,Wunderground v.1.15,2013-08-21 08:48:00,
2013-08-21 04:54:00,67.6,66.7,29.88,NW,321,1.0,1.0,97,0.10,,,0.02,Wunderground v.1.15,2013-08-21 08:54:00,
2013-08-21 04:59:00,67.7,66.8,29.88,West,259,2.0,6.0,97,0.18,,,0.03,Wunderground v.1.15,2013-08-21 08:59:00,
2013-08-21 05:05:00,67.7,66.8,29.88,West,273,2.0,5.0,97,0.15,,,0.05,Wunderground v.1.15,2013-08-21 09:05:00,
2013-08-21 05:11:00,67.6,66.7,29.89,WSW,257,2.0,2.0,97,0.08,,,0.05,Wunderground v.1.15,2013-08-21 09:11:00,
2013-08-21 05:17:00,67.6,66.7,29.88,West,279,1.0,3.0,97,0.04,,,0.05,Wunderground v.1.15,2013-08-21 09:17:00,
2013-08-21 05:23:00,67.6,66.7,29.88,WSW,246,1.0,2.0,97,0.00,,,0.05,Wunderground v.1.15,2013-08-21 09:23:00,
2013-08-21 05:28:00,67.5,66.6,29.88,WSW,246,1.0,2.0,97,0.00,,,0.05,Wunderground v.1.15,2013-08-21 09:28:00,
2013-08-21 05:34:00,67.5,66.6,29.87,WSW,244,0.0,2.0,97,0.00,,,0.05,Wunderground v.1.15,2013-08-21 09:34:00,
2013-08-21 05:39:00,67.4,66.5,29.87,WNW,292,1.0,3.0,97,0.00,,,0.05,Wunderground v.1.15,2013-08-21 09:39:00,
2013-08-21 05:45:00,67.4,66.5,29.87,West,267,1.0,4.0,97,0.00,,,0.05,Wunderground v.1.15,2013-08-21 09:45:00,
2013-08-21 05:51:00,67.4,66.5,29.87,West,267,1.0,2.0,97,0.00,,,0.05,Wunderground v.1.15,2013-08-21 09:51:00,
2013-08-21 05:57:00,67.3,66.4,29.88,West,275,0.0,4.0,97,0.00,,,0.05,Wunderground v.1.15,2013-08-21 09:57:00,
2013-08-21 06:02:00,67.2,66.3,29.88,West,275,0.0,0.0,97,0.00,,,0.05,Wunderground v.1.15,2013-08-21 10:02:00,
2013-08-21 06:08:00,67.0,66.1,29.88,WNW,299,0.0,2.0,97,0.00,,,0.05,Wunderground v.1.15,2013-08-21 10:08:00,
2013-08-21 06:13:00,66.8,65.6,29.89,WNW,299,0.0,1.0,96,0.00,,,0.05,Wunderground v.1.15,2013-08-21 10:13:00,
2013-08-21 06:19:00,66.7,65.5,29.89,WNW,299,0.0,1.0,96,0.00,,,0.05,Wunderground v.1.15,2013-08-21 10:19:00,
2013-08-21 06:24:00,66.7,65.8,29.90,WNW,299,0.0,0.0,97,0.00,,,0.05,Wunderground v.1.15,2013-08-21 10:24:00,
2013-08-21 06:29:00,66.6,65.7,29.90,WNW,299,0.0,0.0,97,0.00,,,0.05,Wunderground v.1.15,2013-08-21 10:29:00,
2013-08-21 06:35:00,66.6,65.7,29.90,WNW,299,0.0,1.0,97,0.00,,,0.05,Wunderground v.1.15,2013-08-21 10:35:00,
2013-08-21 06:41:00,66.6,65.7,29.89,WNW,299,0.0,0.0,97,0.00,,,0.05,Wunderground v.1.15,2013-08-21 10:41:00,
2013-08-21 06:48:00,66.6,65.7,29.90,WNW,299,0.0,0.0,97,0.00,,,0.05,Wunderground v.1.15,2013-08-21 10:48:00,
2013-08-21 06:54:00,66.6,65.7,29.91,WNW,299,0.0,0.0,97,0.00,,,0.05,Wunderground v.1.15,2013-08-21 10:54:00,
2013-08-21 07:00:00,66.5,65.6,29.92,WNW,299,0.0,0.0,97,0.00,,,0.05,Wunderground v.1.15,2013-08-21 11:00:00,
2013-08-21 07:06:00,66.5,65.6,29.92,WNW,299,0.0,1.0,97,0.00,,,0.06,Wunderground v.1.15,2013-08-21 11:06:00,
2013-08-21 07:12:00,66.5,65.9,29.92,WNW,299,0.0,0.0,98,0.00,,,0.06,Wunderground v.1.15,2013-08-21 11:12:00,
2013-08-21 07:18:00,66.5,65.9,29.92,WNW,299,0.0,0.0,98,0.00,,,0.06,Wunderground v.1.15,2013-08-21 11:18:00,
2013-08-21 07:24:00,66.5,65.9,29.92,WNW,299,0.0,0.0,98,0.00,,,0.06,Wunderground v.1.15,2013-08-21 11:24:00,
2013-08-21 07:29:00,66.6,66.0,29.92,WNW,299,0.0,0.0,98,0.00,,,0.06,Wunderground v.1.15,2013-08-21 11:29:00,
2013-08-21 07:35:00,66.6,66.0,29.92,WNW,299,0.0,0.0,98,0.00,,,0.06,Wunderground v.1.15,2013-08-21 11:35:00,
2013-08-21 07:41:00,66.6,66.0,29.92,WNW,299,0.0,0.0,98,0.00,,,0.06,Wunderground v.1.15,2013-08-21 11:41:00,
2013-08-21 07:48:00,66.6,66.0,29.92,WNW,299,0.0,0.0,98,0.00,,,0.06,Wunderground v.1.15,2013-08-21 11:48:00,
2013-08-21 07:54:00,66.6,66.0,29.92,WNW,299,0.0,0.0,98,0.00,,,0.06,Wunderground v.1.15,2013-08-21 11:54:00,
2013-08-21 08:00:00,66.7,66.1,29.92,WNW,299,0.0,0.0,98,0.00,,,0.06,Wunderground v.1.15,2013-08-21 12:00:00,
2013-08-21 08:06:00,66.7,66.1,29.92,WNW,299,0.0,0.0,98,0.00,,,0.06,Wunderground v.1.15,2013-08-21 12:06:00,
2013-08-21 08:11:00,66.7,66.1,29.93,WNW,299,0.0,0.0,98,0.00,,,0.06,Wunderground v.1.15,2013-08-21 12:11:00,
2013-08-21 08:16:00,66.8,66.2,29.93,WNW,299,0.0,0.0,98,0.00,,,0.06,Wunderground v.1.15,2013-08-21 12:16:00,
2013-08-21 08:22:00,66.8,66.2,29.93,WNW,299,0.0,0.0,98,0.00,,,0.06,Wunderground v.1.15,2013-08-21 12:22:00,
2013-08-21 08:28:00,66.9,66.3,29.93,WNW,299,0.0,0.0,98,0.00,,,0.06,Wunderground v.1.15,2013-08-21 12:28:00,
2013-08-21 08:33:00,67.0,66.4,29.94,WNW,299,0.0,0.0,98,0.00,,,0.06,Wunderground v.1.15,2013-08-21 12:33:00,
2013-08-21 08:39:00,67.1,66.5,29.94,WNW,299,0.0,0.0,98,0.00,,,0.06,Wunderground v.1.15,2013-08-21 12:39:00,
2013-08-21 08:44:00,67.1,66.5,29.94,WNW,299,0.0,0.0,98,0.00,,,0.06,Wunderground v.1.15,2013-08-21 12:44:00,
2013-08-21 08:50:00,67.2,66.6,29.94,WNW,299,0.0,0.0,98,0.00,,,0.06,Wunderground v.1.15,2013-08-21 12:50:00,
2013-08-21 08:56:00,67.1,66.5,29.94,WNW,299,0.0,0.0,98,0.00,,,0.06,Wunderground v.1.15,2013-08-21 12:56:00,
2013-08-21 09:01:00,67.1,66.5,29.94,WNW,299,0.0,0.0,98,0.00,,,0.06,Wunderground v.1.15,2013-08-21 13:01:00,
2013-08-21 09:06:00,67.1,66.5,29.94,WNW,299,0.0,0.0,98,0.00,,,0.06,Wunderground v.1.15,2013-08-21 13:06:00,
2013-08-21 09:12:00,67.1,66.5,29.94,WNW,299,0.0,0.0,98,0.00,,,0.06,Wunderground v.1.15,2013-08-21 13:12:00,
2013-08-21 09:17:00,67.2,66.6,29.94,WNW,299,0.0,0.0,98,0.00,,,0.06,Wunderground v.1.15,2013-08-21 13:17:00,
2013-08-21 09:22:00,67.2,66.6,29.94,WNW,299,0.0,0.0,98,0.00,,,0.06,Wunderground v.1.15,2013-08-21 13:22:00,
2013-08-21 09:28:00,67.2,66.6,29.95,WNW,299,0.0,0.0,98,0.00,,,0.06,Wunderground v.1.15,2013-08-21 13:28:00,
2013-08-21 09:34:00,67.3,66.7,29.95,WNW,299,0.0,0.0,98,0.00,,,0.06,Wunderground v.1.15,2013-08-21 13:34:00,
2013-08-21 09:40:00,67.4,66.8,29.95,WNW,299,0.0,0.0,98,0.13,,,0.08,Wunderground v.1.15,2013-08-21 13:40:00,
2013-08-21 09:48:00,67.4,66.8,29.95,WNW,299,0.0,0.0,98,0.26,,,0.12,Wunderground v.1.15,2013-08-21 13:48:00,
2013-08-21 09:54:00,67.4,66.8,29.96,WNW,299,0.0,0.0,98,0.09,,,0.13,Wunderground v.1.15,2013-08-21 13:54:00,
2013-08-21 09:59:00,67.5,66.9,29.96,WNW,299,0.0,0.0,98,0.09,,,0.13,Wunderground v.1.15,2013-08-21 13:59:00,
2013-08-21 10:04:00,67.5,66.9,29.97,WNW,299,0.0,0.0,98,0.07,,,0.14,Wunderground v.1.15,2013-08-21 14:04:00,
2013-08-21 10:10:00,67.5,66.9,29.97,WNW,299,0.0,0.0,98,0.07,,,0.15,Wunderground v.1.15,2013-08-21 14:10:00,
2013-08-21 10:16:00,67.5,66.9,29.97,WNW,299,0.0,0.0,98,0.07,,,0.15,Wunderground v.1.15,2013-08-21 14:16:00,
2013-08-21 10:22:00,67.4,66.8,29.97,WNW,299,0.0,0.0,98,0.07,,,0.16,Wunderground v.1.15,2013-08-21 14:22:00,
2013-08-21 10:28:00,67.4,66.8,29.97,WNW,299,0.0,0.0,98,0.06,,,0.16,Wunderground v.1.15,2013-08-21 14:28:00,
2013-08-21 10:33:00,67.5,66.9,29.97,WNW,299,0.0,0.0,98,0.04,,,0.16,Wunderground v.1.15,2013-08-21 14:33:00,
2013-08-21 10:39:00,67.4,66.8,29.98,WNW,299,0.0,0.0,98,0.00,,,0.17,Wunderground v.1.15,2013-08-21 14:39:00,
2013-08-21 10:45:00,67.4,66.8,29.98,WNW,299,0.0,0.0,98,0.00,,,0.17,Wunderground v.1.15,2013-08-21 14:45:00,
2013-08-21 10:51:00,67.2,66.6,29.99,WNW,299,0.0,0.0,98,0.07,,,0.18,Wunderground v.1.15,2013-08-21 14:51:00,
2013-08-21 10:57:00,67.2,66.6,29.99,WNW,299,0.0,0.0,98,0.18,,,0.20,Wunderground v.1.15,2013-08-21 14:57:00,
2013-08-21 11:02:00,67.1,66.5,29.98,WNW,299,0.0,0.0,98,0.11,,,0.20,Wunderground v.1.15,2013-08-21 15:02:00,
2013-08-21 11:08:00,67.2,66.6,29.99,WNW,299,0.0,0.0,98,0.21,,,0.22,Wunderground v.1.15,2013-08-21 15:08:00,
2013-08-21 11:14:00,67.2,66.6,29.99,WNW,299,0.0,0.0,98,0.15,,,0.24,Wunderground v.1.15,2013-08-21 15:14:00,
2013-08-21 11:20:00,67.2,66.6,29.99,WNW,299,0.0,0.0,98,0.13,,,0.25,Wunderground v.1.15,2013-08-21 15:20:00,
2013-08-21 11:25:00,67.2,66.6,29.99,WNW,299,0.0,0.0,98,0.17,,,0.26,Wunderground v.1.15,2013-08-21 15:25:00,
2013-08-21 11:31:00,67.1,66.5,29.99,WNW,299,0.0,0.0,98,0.17,,,0.28,Wunderground v.1.15,2013-08-21 15:31:00,
2013-08-21 11:37:00,67.0,66.4,29.98,WNW,299,0.0,0.0,98,0.12,,,0.29,Wunderground v.1.15,2013-08-21 15:37:00,
2013-08-21 11:43:00,67.0,66.4,29.98,WNW,299,0.0,0.0,98,0.15,,,0.30,Wunderground v.1.15,2013-08-21 15:43:00,
2013-08-21 11:48:00,67.0,66.4,29.99,WNW,299,0.0,0.0,98,0.17,,,0.32,Wunderground v.1.15,2013-08-21 15:48:00,
2013-08-21 11:54:00,67.1,66.5,29.98,WNW,299,0.0,0.0,98,0.13,,,0.33,Wunderground v.1.15,2013-08-21 15:54:00,
2013-08-21 12:00:00,67.1,66.5,29.98,WNW,299,0.0,0.0,98,0.11,,,0.34,Wunderground v.1.15,2013-08-21 16:00:00,
2013-08-21 12:06:00,67.1,66.5,29.98,WNW,299,0.0,0.0,98,0.07,,,0.34,Wunderground v.1.15,2013-08-21 16:06:00,
2013-08-21 12:12:00,67.2,66.6,29.98,WNW,299,0.0,0.0,98,0.05,,,0.35,Wunderground v.1.15,2013-08-21 16:12:00,
2013-08-21 12:18:00,67.1,66.5,29.99,WNW,299,0.0,0.0,98,0.09,,,0.36,Wunderground v.1.15,2013-08-21 16:18:00,
2013-08-21 12:23:00,67.0,66.4,29.99,WNW,299,0.0,0.0,98,0.08,,,0.37,Wunderground v.1.15,2013-08-21 16:23:00,
2013-08-21 12:29:00,66.9,66.3,29.99,WNW,299,0.0,0.0,98,0.08,,,0.37,Wunderground v.1.15,2013-08-21 16:29:00,
2013-08-21 12:34:00,66.9,66.3,29.99,WNW,299,0.0,0.0,98,0.08,,,0.38,Wunderground v.1.15,2013-08-21 16:34:00,
2013-08-21 12:40:00,66.9,66.3,29.98,WNW,299,0.0,0.0,98,0.09,,,0.39,Wunderground v.1.15,2013-08-21 16:40:00,
2013-08-21 12:45:00,67.0,66.4,29.98,WNW,299,0.0,0.0,98,0.08,,,0.40,Wunderground v.1.15,2013-08-21 16:45:00,
2013-08-21 12:51:00,67.1,66.5,29.98,WNW,299,0.0,0.0,98,0.09,,,0.41,Wunderground v.1.15,2013-08-21 16:51:00,
2013-08-21 12:57:00,67.1,66.5,29.97,WNW,299,0.0,0.0,98,0.15,,,0.42,Wunderground v.1.15,2013-08-21 16:57:00,
2013-08-21 13:03:00,67.2,66.6,29.97,WNW,299,0.0,0.0,98,0.08,,,0.43,Wunderground v.1.15,2013-08-21 17:03:00,
2013-08-21 13:09:00,67.2,66.6,29.97,WNW,299,0.0,0.0,98,0.13,,,0.44,Wunderground v.1.15,2013-08-21 17:09:00,
2013-08-21 13:15:00,67.3,66.7,29.96,WNW,299,0.0,0.0,98,0.15,,,0.46,Wunderground v.1.15,2013-08-21 17:15:00,
2013-08-21 13:20:00,67.3,66.7,29.96,WNW,299,0.0,0.0,98,0.09,,,0.46,Wunderground v.1.15,2013-08-21 17:20:00,
2013-08-21 13:25:00,67.2,66.6,29.96,WNW,299,0.0,0.0,98,0.09,,,0.47,Wunderground v.1.15,2013-08-21 17:25:00,
2013-08-21 13:31:00,67.2,66.6,29.96,WNW,299,0.0,0.0,98,0.08,,,0.48,Wunderground v.1.15,2013-08-21 17:31:00,
2013-08-21 13:37:00,67.1,66.5,29.96,WNW,299,0.0,0.0,98,0.07,,,0.48,Wunderground v.1.15,2013-08-21 17:37:00,
2013-08-21 13:42:00,67.0,66.4,29.96,WNW,299,0.0,0.0,98,0.06,,,0.49,Wunderground v.1.15,2013-08-21 17:42:00,
2013-08-21 13:48:00,67.0,66.4,29.96,WNW,299,0.0,0.0,98,0.06,,,0.50,Wunderground v.1.15,2013-08-21 17:48:00,
2013-08-21 13:54:00,67.0,66.4,29.95,WNW,299,0.0,0.0,98,0.06,,,0.50,Wunderground v.1.15,2013-08-21 17:54:00,
2013-08-21 13:59:00,67.1,66.5,29.95,WNW,299,0.0,0.0,98,0.08,,,0.51,Wunderground v.1.15,2013-08-21 17:59:00,
2013-08-21 14:05:00,67.3,66.7,29.95,WNW,299,0.0,0.0,98,0.06,,,0.51,Wunderground v.1.15,2013-08-21 18:05:00,
2013-08-21 14:10:00,67.4,66.8,29.95,WNW,299,0.0,0.0,98,0.04,,,0.51,Wunderground v.1.15,2013-08-21 18:10:00,
2013-08-21 14:16:00,67.6,67.0,29.95,WNW,299,0.0,0.0,98,0.00,,,0.51,Wunderground v.1.15,2013-08-21 18:16:00,
2013-08-21 14:22:00,67.7,67.1,29.95,WNW,299,0.0,0.0,98,0.00,,,0.51,Wunderground v.1.15,2013-08-21 18:22:00,
2013-08-21 14:28:00,67.6,67.0,29.94,WNW,299,0.0,0.0,98,0.00,,,0.51,Wunderground v.1.15,2013-08-21 18:28:00,
2013-08-21 14:34:00,67.6,67.0,29.93,WNW,299,0.0,0.0,98,0.00,,,0.52,Wunderground v.1.15,2013-08-21 18:34:00,
2013-08-21 14:40:00,67.7,67.1,29.93,WNW,299,0.0,0.0,98,0.00,,,0.52,Wunderground v.1.15,2013-08-21 18:40:00,
2013-08-21 14:45:00,67.7,67.1,29.93,WNW,299,0.0,0.0,98,0.00,,,0.52,Wunderground v.1.15,2013-08-21 18:45:00,
2013-08-21 14:50:00,67.7,67.1,29.92,WNW,299,0.0,0.0,98,0.05,,,0.53,Wunderground v.1.15,2013-08-21 18:50:00,
2013-08-21 14:56:00,67.7,67.1,29.93,WNW,299,0.0,1.0,98,0.06,,,0.54,Wunderground v.1.15,2013-08-21 18:56:00,
2013-08-21 15:02:00,67.7,67.1,29.92,NW,321,1.0,1.0,98,0.06,,,0.54,Wunderground v.1.15,2013-08-21 19:02:00,
2013-08-21 15:07:00,67.7,67.1,29.92,NW,324,0.0,1.0,98,0.06,,,0.55,Wunderground v.1.15,2013-08-21 19:07:00,
2013-08-21 15:13:00,67.7,67.1,29.92,NW,324,0.0,0.0,98,0.06,,,0.55,Wunderground v.1.15,2013-08-21 19:13:00,
2013-08-21 15:19:00,67.8,67.2,29.92,NW,323,0.0,0.0,98,0.04,,,0.55,Wunderground v.1.15,2013-08-21 19:19:00,
2013-08-21 15:24:00,67.8,67.2,29.92,NNW,335,0.0,1.0,98,0.00,,,0.56,Wunderground v.1.15,2013-08-21 19:24:00,
2013-08-21 15:30:00,67.7,67.1,29.91,NNW,335,0.0,0.0,98,0.00,,,0.56,Wunderground v.1.15,2013-08-21 19:30:00,
2013-08-21 15:35:00,67.7,67.1,29.91,NNW,335,0.0,1.0,98,0.00,,,0.56,Wunderground v.1.15,2013-08-21 19:35:00,
2013-08-21 15:41:00,67.7,67.1,29.90,NW,312,0.0,0.0,98,0.00,,,0.56,Wunderground v.1.15,2013-08-21 19:41:00,
2013-08-21 15:48:00,67.8,67.2,29.90,NW,312,0.0,0.0,98,0.00,,,0.56,Wunderground v.1.15,2013-08-21 19:48:00,
2013-08-21 15:54:00,68.0,67.4,29.90,NW,319,0.0,0.0,98,0.00,,,0.56,Wunderground v.1.15,2013-08-21 19:54:00,
2013-08-21 15:59:00,68.2,67.6,29.89,NW,319,0.0,2.0,98,0.00,,,0.56,Wunderground v.1.15,2013-08-21 19:59:00,
2013-08-21 16:05:00,68.3,67.7,29.89,NW,319,0.0,0.0,98,0.00,,,0.56,Wunderground v.1.15,2013-08-21 20:05:00,
2013-08-21 16:11:00,68.3,67.7,29.89,NW,319,0.0,0.0,98,0.00,,,0.56,Wunderground v.1.15,2013-08-21 20:11:00,
2013-08-21 16:16:00,68.4,67.8,29.89,NW,319,0.0,0.0,98,0.00,,,0.56,Wunderground v.1.15,2013-08-21 20:16:00,
2013-08-21 16:21:00,68.5,67.9,29.89,NW,319,0.0,0.0,98,0.00,,,0.56,Wunderground v.1.15,2013-08-21 20:21:00,
2013-08-21 16:27:00,68.6,68.0,29.89,NW,319,0.0,0.0,98,0.00,,,0.56,Wunderground v.1.15,2013-08-21 20:27:00,
2013-08-21 16:33:00,68.6,68.0,29.88,NW,319,0.0,0.0,98,0.00,,,0.56,Wunderground v.1.15,2013-08-21 20:33:00,
2013-08-21 16:39:00,68.7,68.1,29.88,NW,319,0.0,0.0,98,0.00,,,0.56,Wunderground v.1.15,2013-08-21 20:39:00,
2013-08-21 16:45:00,68.7,68.1,29.88,NW,319,0.0,0.0,98,0.00,,,0.56,Wunderground v.1.15,2013-08-21 20:45:00,
2013-08-21 16:50:00,68.8,67.9,29.88,NW,319,0.0,0.0,97,0.00,,,0.56,Wunderground v.1.15,2013-08-21 20:50:00,
2013-08-21 16:55:00,69.0,68.4,29.88,NW,319,0.0,0.0,98,0.00,,,0.56,Wunderground v.1.15,2013-08-21 20:55:00,
2013-08-21 17:00:00,69.2,68.6,29.88,NW,319,0.0,0.0,98,0.00,,,0.56,Wunderground v.1.15,2013-08-21 21:00:00,
2013-08-21 17:06:00,69.2,68.3,29.88,NW,319,0.0,0.0,97,0.00,,,0.56,Wunderground v.1.15,2013-08-21 21:06:00,
2013-08-21 17:12:00,69.2,68.3,29.88,NW,319,0.0,0.0,97,0.00,,,0.56,Wunderground v.1.15,2013-08-21 21:12:00,
2013-08-21 17:18:00,69.3,68.4,29.87,NW,319,0.0,0.0,97,0.00,,,0.56,Wunderground v.1.15,2013-08-21 21:18:00,
2013-08-21 17:24:00,69.4,68.5,29.87,NW,319,0.0,0.0,97,0.00,,,0.57,Wunderground v.1.15,2013-08-21 21:24:00,
2013-08-21 17:30:00,69.4,68.5,29.87,NW,319,0.0,0.0,97,0.00,,,0.57,Wunderground v.1.15,2013-08-21 21:30:00,
2013-08-21 17:36:00,69.3,68.1,29.87,NW,319,0.0,0.0,96,0.00,,,0.57,Wunderground v.1.15,2013-08-21 21:36:00,
2013-08-21 17:41:00,69.2,68.0,29.88,NW,319,0.0,0.0,96,0.00,,,0.57,Wunderground v.1.15,2013-08-21 21:41:00,
2013-08-21 17:48:00,69.3,68.1,29.87,NW,319,0.0,0.0,96,0.00,,,0.57,Wunderground v.1.15,2013-08-21 21:48:00,
2013-08-21 17:54:00,69.3,68.1,29.87,NW,319,0.0,0.0,96,0.00,,,0.57,Wunderground v.1.15,2013-08-21 21:54:00,
2013-08-21 18:00:00,69.4,68.2,29.87,NW,319,0.0,0.0,96,0.00,,,0.57,Wunderground v.1.15,2013-08-21 22:00:00,
2013-08-21 18:06:00,69.4,68.2,29.87,NW,319,0.0,0.0,96,0.00,,,0.57,Wunderground v.1.15,2013-08-21 22:06:00,
2013-08-21 18:12:00,69.5,68.3,29.87,NW,319,0.0,0.0,96,0.00,,,0.57,Wunderground v.1.15,2013-08-21 22:12:00,
2013-08-21 18:18:00,69.5,68.3,29.88,NW,319,0.0,0.0,96,0.00,,,0.57,Wunderground v.1.15,2013-08-21 22:18:00,
2013-08-21 18:23:00,69.5,68.3,29.88,NW,319,0.0,0.0,96,0.00,,,0.57,Wunderground v.1.15,2013-08-21 22:23:00,
2013-08-21 18:29:00,69.5,68.3,29.88,NW,319,0.0,0.0,96,0.00,,,0.57,Wunderground v.1.15,2013-08-21 22:29:00,
2013-08-21 18:34:00,69.4,68.2,29.87,NW,319,0.0,0.0,96,0.00,,,0.57,Wunderground v.1.15,2013-08-21 22:34:00,
2013-08-21 18:39:00,69.4,68.2,29.87,NW,319,0.0,0.0,96,0.00,,,0.57,Wunderground v.1.15,2013-08-21 22:39:00,
2013-08-21 18:45:00,69.4,68.2,29.87,NW,319,0.0,0.0,96,0.00,,,0.57,Wunderground v.1.15,2013-08-21 22:45:00,
2013-08-21 18:50:00,69.5,68.6,29.87,NW,319,0.0,0.0,97,0.00,,,0.57,Wunderground v.1.15,2013-08-21 22:50:00,
2013-08-21 18:56:00,69.6,68.7,29.86,NW,319,0.0,0.0,97,0.00,,,0.57,Wunderground v.1.15,2013-08-21 22:56:00,
2013-08-21 19:01:00,69.7,68.8,29.86,NW,319,0.0,0.0,97,0.00,,,0.57,Wunderground v.1.15,2013-08-21 23:01:00,
2013-08-21 19:06:00,69.7,68.8,29.86,NW,319,0.0,0.0,97,0.00,,,0.57,Wunderground v.1.15,2013-08-21 23:06:00,
2013-08-21 19:12:00,69.6,68.7,29.86,NW,319,0.0,0.0,97,0.00,,,0.57,Wunderground v.1.15,2013-08-21 23:12:00,
2013-08-21 19:18:00,69.6,68.7,29.86,NW,319,0.0,0.0,97,0.00,,,0.57,Wunderground v.1.15,2013-08-21 23:18:00,
2013-08-21 19:24:00,69.6,68.7,29.86,NW,319,0.0,0.0,97,0.00,,,0.57,Wunderground v.1.15,2013-08-21 23:24:00,
2013-08-21 19:30:00,69.5,68.3,29.86,NW,319,0.0,0.0,96,0.00,,,0.57,Wunderground v.1.15,2013-08-21 23:30:00,
2013-08-21 19:35:00,69.3,68.1,29.87,NW,319,0.0,0.0,96,0.00,,,0.57,Wunderground v.1.15,2013-08-21 23:35:00,
2013-08-21 19:41:00,69.2,68.0,29.87,NW,319,0.0,0.0,96,0.00,,,0.57,Wunderground v.1.15,2013-08-21 23:41:00,
2013-08-21 19:48:00,69.1,67.9,29.87,NW,319,0.0,0.0,96,0.00,,,0.57,Wunderground v.1.15,2013-08-21 23:48:00,
2013-08-21 19:54:00,69.0,67.8,29.87,NW,319,0.0,0.0,96,0.00,,,0.57,Wunderground v.1.15,2013-08-21 23:54:00,
2013-08-21 20:00:00,68.8,67.6,29.87,NW,319,0.0,0.0,96,0.00,,,0.57,Wunderground v.1.15,2013-08-22 00:00:00,
2013-08-21 20:06:00,68.7,67.5,29.87,NW,319,0.0,0.0,96,0.00,,,0.57,Wunderground v.1.15,2013-08-22 00:06:00,
2013-08-21 20:12:00,68.5,67.3,29.87,NW,319,0.0,0.0,96,0.00,,,0.57,Wunderground v.1.15,2013-08-22 00:12:00,
2013-08-21 20:17:00,68.4,67.2,29.87,NW,319,0.0,0.0,96,0.00,,,0.57,Wunderground v.1.15,2013-08-22 00:17:00,
2013-08-21 20:23:00,68.3,67.1,29.88,NW,319,0.0,0.0,96,0.00,,,0.57,Wunderground v.1.15,2013-08-22 00:23:00,
2013-08-21 20:29:00,68.1,66.9,29.88,NW,319,0.0,0.0,96,0.00,,,0.57,Wunderground v.1.15,2013-08-22 00:29:00,
2013-08-21 20:34:00,68.0,66.8,29.89,NW,319,0.0,0.0,96,0.00,,,0.57,Wunderground v.1.15,2013-08-22 00:34:00,
2013-08-21 20:40:00,67.8,66.6,29.89,NW,319,0.0,0.0,96,0.00,,,0.57,Wunderground v.1.15,2013-08-22 00:40:00,
2013-08-21 20:48:00,67.6,66.4,29.90,NW,319,0.0,0.0,96,0.00,,,0.57,Wunderground v.1.15,2013-08-22 00:48:00,
2013-08-21 20:54:00,67.4,66.2,29.90,NW,319,0.0,0.0,96,0.00,,,0.57,Wunderground v.1.15,2013-08-22 00:54:00,
2013-08-21 21:00:00,67.2,66.3,29.90,NW,319,0.0,0.0,97,0.00,,,0.57,Wunderground v.1.15,2013-08-22 01:00:00,
2013-08-21 21:06:00,67.1,66.2,29.89,NW,319,0.0,0.0,97,0.00,,,0.57,Wunderground v.1.15,2013-08-22 01:06:00,
2013-08-21 21:11:00,67.0,66.1,29.89,NW,319,0.0,0.0,97,0.00,,,0.57,Wunderground v.1.15,2013-08-22 01:11:00,
2013-08-21 21:17:00,67.0,66.1,29.90,NW,319,0.0,0.0,97,0.00,,,0.57,Wunderground v.1.15,2013-08-22 01:17:00,
2013-08-21 21:23:00,66.8,65.9,29.90,NW,319,0.0,0.0,97,0.00,,,0.57,Wunderground v.1.15,2013-08-22 01:23:00,
2013-08-21 21:29:00,66.8,65.9,29.90,NW,319,0.0,0.0,97,0.00,,,0.57,Wunderground v.1.15,2013-08-22 01:29:00,
2013-08-21 21:35:00,66.7,65.8,29.91,NW,319,0.0,0.0,97,0.00,,,0.57,Wunderground v.1.15,2013-08-22 01:35:00,
2013-08-21 21:41:00,66.7,65.8,29.91,NW,319,0.0,0.0,97,0.00,,,0.57,Wunderground v.1.15,2013-08-22 01:41:00,
2013-08-21 21:48:00,66.6,65.7,29.91,NW,319,0.0,0.0,97,0.00,,,0.57,Wunderground v.1.15,2013-08-22 01:48:00,
2013-08-21 21:54:00,66.6,65.7,29.91,NW,319,0.0,0.0,97,0.00,,,0.57,Wunderground v.1.15,2013-08-22 01:54:00,
2013-08-21 21:59:00,66.6,65.7,29.91,NW,319,0.0,1.0,97,0.00,,,0.57,Wunderground v.1.15,2013-08-22 01:59:00,
2013-08-21 22:05:00,66.6,65.7,29.92,NW,319,0.0,0.0,97,0.00,,,0.57,Wunderground v.1.15,2013-08-22 02:05:00,
2013-08-21 22:10:00,66.5,65.6,29.92,NW,319,0.0,0.0,97,0.00,,,0.57,Wunderground v.1.15,2013-08-22 02:10:00,
2013-08-21 22:16:00,66.5,65.6,29.91,NW,319,0.0,0.0,97,0.00,,,0.57,Wunderground v.1.15,2013-08-22 02:16:00,
2013-08-21 22:21:00,66.5,65.6,29.91,NW,319,0.0,0.0,97,0.00,,,0.57,Wunderground v.1.15,2013-08-22 02:21:00,
2013-08-21 22:27:00,66.5,65.6,29.91,NW,319,0.0,0.0,97,0.00,,,0.57,Wunderground v.1.15,2013-08-22 02:27:00,
2013-08-21 22:33:00,66.4,65.5,29.91,NW,319,0.0,0.0,97,0.00,,,0.57,Wunderground v.1.15,2013-08-22 02:33:00,
2013-08-21 22:38:00,66.4,65.5,29.91,NW,319,0.0,0.0,97,0.00,,,0.57,Wunderground v.1.15,2013-08-22 02:38:00,
2013-08-21 22:44:00,66.4,65.5,29.91,NW,319,0.0,0.0,97,0.00,,,0.57,Wunderground v.1.15,2013-08-22 02:44:00,
2013-08-21 22:50:00,66.4,65.5,29.91,NW,319,0.0,0.0,97,0.00,,,0.57,Wunderground v.1.15,2013-08-22 02:50:00,
2013-08-21 22:56:00,66.4,65.8,29.91,NW,319,0.0,0.0,98,0.00,,,0.57,Wunderground v.1.15,2013-08-22 02:56:00,
2013-08-21 23:01:00,66.5,65.9,29.90,NW,319,0.0,0.0,98,0.00,,,0.57,Wunderground v.1.15,2013-08-22 03:01:00,
2013-08-21 23:06:00,66.5,65.9,29.90,NW,319,0.0,0.0,98,0.00,,,0.57,Wunderground v.1.15,2013-08-22 03:06:00,
2013-08-21 23:12:00,66.5,65.9,29.91,NW,319,0.0,0.0,98,0.00,,,0.57,Wunderground v.1.15,2013-08-22 03:12:00,
2013-08-21 23:17:00,66.5,65.9,29.90,NW,319,0.0,0.0,98,0.00,,,0.57,Wunderground v.1.15,2013-08-22 03:17:00,
2013-08-21 23:23:00,66.5,65.9,29.90,NW,319,0.0,0.0,98,0.00,,,0.57,Wunderground v.1.15,2013-08-22 03:23:00,
2013-08-21 23:29:00,66.6,66.0,29.90,NW,319,0.0,1.0,98,0.00,,,0.57,Wunderground v.1.15,2013-08-22 03:29:00,
2013-08-21 23:34:00,66.6,66.0,29.90,NW,319,0.0,0.0,98,0.00,,,0.57,Wunderground v.1.15,2013-08-22 03:34:00,
2013-08-21 23:39:00,66.5,65.9,29.90,NW,319,0.0,0.0,98,0.00,,,0.57,Wunderground v.1.15,2013-08-22 03:39:00,
2013-08-21 23:45:00,66.5,65.9,29.90,NW,319,0.0,0.0,98,0.00,,,0.57,Wunderground v.1.15,2013-08-22 03:45:00,
2013-08-21 23:51:00,66.5,65.9,29.90,NW,319,0.0,0.0,98,0.00,,,0.57,Wunderground v.1.15,2013-08-22 03:51:00,
2013-08-21 23:57:00,66.5,65.9,29.90,NW,319,0.0,1.0,98,0.00,,,0.57,Wunderground v.1.15,2013-08-22 03:57:00,